Time;durP1;ratioP1;P1;durP2;ratioP2;P2;SDS_P1;SDS_P2;PMS_P1;PMS_P2;Temp;Humidity;BMP_temperature;BMP_pressure;BME280_temperature;BME280_humidity;BME280_pressure;Samples;Min_cycle;Max_cycle;Signal;HPM_P1;HPM_P2
2022/11/13 00:02:14;;;;;;;17.73;12.40;;;3.00;99.90;;;;;;5068439;28;20258;-77
2022/11/13 00:04:39;;;;;;;15.43;12.20;;;3.00;99.90;;;;;;5072308;28;20580;-77
2022/11/13 00:07:05;;;;;;;21.03;12.77;;;2.80;99.90;;;;;;5073210;28;20208;-77
2022/11/13 00:09:31;;;;;;;17.07;12.57;;;2.80;99.90;;;;;;5072088;28;20177;-77
2022/11/13 00:11:56;;;;;;;14.27;12.10;;;2.80;99.90;;;;;;5057936;28;20185;-77
2022/11/13 00:14:22;;;;;;;12.47;11.17;;;2.80;99.90;;;;;;5051832;28;20220;-76
2022/11/13 00:16:48;;;;;;;13.10;11.80;;;2.80;99.90;;;;;;5052896;28;20185;-77
2022/11/13 00:19:14;;;;;;;13.27;11.73;;;2.80;99.90;;;;;;5051572;28;20182;-77
2022/11/13 00:21:39;;;;;;;14.97;12.17;;;2.80;99.90;;;;;;5064477;28;20729;-77
2022/11/13 00:24:05;;;;;;;14.67;13.23;;;2.70;99.90;;;;;;5056638;28;20185;-77
2022/11/13 00:26:31;;;;;;;17.90;13.83;;;2.60;99.90;;;;;;5052623;28;20263;-76
2022/11/13 00:29:01;;;;;;;17.17;13.67;;;2.60;99.90;;;;;;5051389;28;20186;-77
2022/11/13 00:31:28;;;;;;;29.97;14.47;;;2.60;99.90;;;;;;5062028;28;20585;-77
2022/11/13 00:33:54;;;;;;;17.37;13.37;;;2.60;99.90;;;;;;5071770;28;20183;-77
2022/11/13 00:36:24;;;;;;;28.33;14.03;;;2.60;99.90;;;;;;5072818;28;20185;-77
2022/11/13 00:38:51;;;;;;;17.57;13.23;;;2.50;99.90;;;;;;5071320;28;20621;-76
2022/11/13 00:41:17;;;;;;;17.20;12.93;;;2.50;99.90;;;;;;5064454;28;20225;-76
2022/11/13 00:43:43;;;;;;;26.40;14.93;;;2.40;99.90;;;;;;5051592;28;20189;-76
2022/11/13 00:46:09;;;;;;;16.93;13.37;;;2.40;99.90;;;;;;5065566;28;20175;-76
2022/11/13 00:48:35;;;;;;;16.97;13.60;;;2.30;99.90;;;;;;5071273;28;20197;-76
2022/11/13 00:51:02;;;;;;;12.47;11.17;;;2.30;99.90;;;;;;5078654;28;20687;-76
2022/11/13 00:53:27;;;;;;;12.43;11.13;;;2.30;99.90;;;;;;5089877;28;20184;-76
2022/11/13 00:55:54;;;;;;;12.93;11.63;;;2.30;99.90;;;;;;5085795;28;20180;-76
2022/11/13 00:58:20;;;;;;;11.63;10.47;;;2.20;99.90;;;;;;5072262;28;20267;-76
2022/11/13 01:00:46;;;;;;;12.60;10.93;;;2.20;99.90;;;;;;5070999;28;20632;-77
2022/11/13 01:03:14;;;;;;;13.97;12.53;;;2.20;99.90;;;;;;5072207;28;20553;-76
2022/11/13 01:05:42;;;;;;;17.80;11.67;;;2.10;99.90;;;;;;5071578;28;20181;-76
2022/11/13 01:08:09;;;;;;;33.23;13.13;;;2.10;99.90;;;;;;5078241;28;20799;-75
2022/11/13 01:10:43;;;;;;;38.90;13.40;;;2.10;99.90;;;;;;5073588;28;20228;-77
2022/11/13 01:13:09;;;;;;;23.07;12.80;;;2.10;99.90;;;;;;5052146;28;20719;-76
2022/11/13 01:15:38;;;;;;;20.40;13.13;;;2.10;99.90;;;;;;5051354;28;20178;-76
2022/11/13 01:18:04;;;;;;;16.20;12.77;;;2.10;99.90;;;;;;5052140;28;20629;-76
2022/11/13 01:20:31;;;;;;;15.37;12.87;;;2.10;99.90;;;;;;5058043;28;20209;-76
2022/11/13 01:22:58;;;;;;;16.87;12.53;;;2.10;99.90;;;;;;5078765;28;20255;-77
2022/11/13 01:25:24;;;;;;;23.43;13.67;;;2.00;99.90;;;;;;5071558;28;20226;-77
2022/11/13 01:27:49;;;;;;;37.73;12.53;;;2.00;99.90;;;;;;5071600;28;20245;-77
2022/11/13 01:30:16;;;;;;;23.37;12.77;;;2.10;99.90;;;;;;5067006;28;20741;-75
2022/11/13 01:32:41;;;;;;;26.50;13.00;;;2.10;99.90;;;;;;5063850;28;20664;-76
2022/11/13 01:35:08;;;;;;;18.93;12.00;;;2.20;99.90;;;;;;5071574;28;20185;-76
2022/11/13 01:37:33;;;;;;;20.07;13.00;;;2.20;99.90;;;;;;5071326;28;20578;-76
2022/11/13 01:39:59;;;;;;;26.80;13.60;;;2.20;99.90;;;;;;5067364;28;20293;-75
2022/11/13 01:42:25;;;;;;;25.07;12.70;;;2.20;99.90;;;;;;5066572;28;20225;-74
2022/11/13 01:44:58;;;;;;;40.07;14.33;;;2.20;99.90;;;;;;5069100;28;20204;-74
2022/11/13 01:47:25;;;;;;;37.23;12.10;;;2.20;99.90;;;;;;5066550;28;20697;-73
2022/11/13 01:49:53;;;;;;;39.80;13.03;;;2.20;99.90;;;;;;5071274;28;20199;-74
2022/11/13 01:52:33;;;;;;;43.50;13.33;;;2.20;99.90;;;;;;5070178;28;20218;-74
2022/11/13 01:55:04;;;;;;;19.57;12.90;;;2.20;99.90;;;;;;5067321;28;20182;-74
2022/11/13 01:57:30;;;;;;;26.63;15.70;;;2.20;99.90;;;;;;5049579;28;20220;-74
2022/11/13 02:00:06;;;;;;;17.37;12.60;;;2.10;99.90;;;;;;5050027;28;20205;-74
2022/11/13 02:02:32;;;;;;;14.53;13.13;;;2.00;99.90;;;;;;5049561;28;20181;-74
2022/11/13 02:04:58;;;;;;;16.37;14.30;;;2.00;99.90;;;;;;5052250;28;20181;-74
2022/11/13 02:07:25;;;;;;;16.33;12.47;;;2.00;99.90;;;;;;5051812;28;20181;-74
2022/11/13 02:09:54;;;;;;;16.40;11.67;;;2.00;99.90;;;;;;5049820;28;20212;-74
2022/11/13 02:12:41;;;;;;;17.37;11.50;;;1.90;99.90;;;;;;5049941;28;20180;-74
2022/11/13 02:15:08;;;;;;;29.37;11.43;;;1.80;99.90;;;;;;5052901;28;20205;-74
2022/11/13 02:17:43;;;;;;;30.50;13.10;;;1.80;99.90;;;;;;5069496;28;20208;-75
2022/11/13 02:20:11;;;;;;;19.50;11.40;;;1.70;99.90;;;;;;5072164;28;20679;-74
2022/11/13 02:22:52;;;;;;;21.93;11.90;;;1.70;99.90;;;;;;5070979;28;20716;-73
2022/11/13 02:25:18;;;;;;;14.50;13.00;;;1.60;99.90;;;;;;5068020;28;20185;-74
2022/11/13 02:27:49;;;;;;;13.23;11.47;;;1.60;99.90;;;;;;5070574;28;20191;-74
2022/11/13 02:30:22;;;;;;;13.07;11.87;;;1.50;99.90;;;;;;5067581;28;20236;-73
2022/11/13 02:32:50;;;;;;;21.60;13.33;;;1.50;99.90;;;;;;5061841;28;20639;-74
2022/11/13 02:35:21;;;;;;;15.93;14.47;;;1.50;99.90;;;;;;5054071;28;20177;-75
2022/11/13 02:37:47;;;;;;;15.57;13.70;;;1.40;99.90;;;;;;5070490;28;20296;-74
2022/11/13 02:40:13;;;;;;;14.37;12.97;;;1.40;99.90;;;;;;5069017;28;20299;-74
2022/11/13 02:42:40;;;;;;;13.17;11.83;;;1.30;99.90;;;;;;5070802;28;20288;-74
2022/11/13 02:45:06;;;;;;;12.13;11.03;;;1.30;99.90;;;;;;5072265;28;20195;-74
2022/11/13 02:47:32;;;;;;;13.03;11.13;;;1.30;99.90;;;;;;5074189;28;20258;-73
2022/11/13 02:49:58;;;;;;;14.00;12.50;;;1.30;99.90;;;;;;5071281;28;20709;-73
2022/11/13 02:52:24;;;;;;;13.03;11.90;;;1.30;99.90;;;;;;5070054;28;20184;-73
2022/11/13 02:54:49;;;;;;;14.10;12.83;;;1.30;99.90;;;;;;5070732;28;20185;-75
2022/11/13 02:57:15;;;;;;;13.90;12.50;;;1.30;99.90;;;;;;5070311;28;20680;-74
2022/11/13 02:59:41;;;;;;;13.33;12.13;;;1.20;99.90;;;;;;5071458;28;20610;-75
2022/11/13 03:02:07;;;;;;;14.20;12.90;;;1.20;99.90;;;;;;5075148;28;20193;-75
2022/11/13 03:04:33;;;;;;;13.77;12.37;;;1.20;99.90;;;;;;5070415;28;20242;-74
2022/11/13 03:06:59;;;;;;;13.83;12.63;;;1.20;99.90;;;;;;5070127;28;20185;-74
2022/11/13 03:09:24;;;;;;;13.33;12.13;;;1.10;99.90;;;;;;5068970;28;20188;-74
2022/11/13 03:11:50;;;;;;;13.43;12.07;;;1.10;99.90;;;;;;5070349;28;20220;-75
2022/11/13 03:14:16;;;;;;;13.93;12.73;;;1.10;99.90;;;;;;5070938;28;20756;-75
2022/11/13 03:16:41;;;;;;;14.60;13.23;;;1.10;99.90;;;;;;5061099;28;20267;-76
2022/11/13 03:19:07;;;;;;;13.50;12.20;;;1.10;99.90;;;;;;5073899;28;20206;-74
2022/11/13 03:21:34;;;;;;;14.37;12.97;;;1.20;99.90;;;;;;5061265;28;20200;-75
2022/11/13 03:24:00;;;;;;;14.70;13.20;;;1.20;99.90;;;;;;5052944;28;20184;-74
2022/11/13 03:26:28;;;;;;;14.73;13.13;;;1.10;99.90;;;;;;5052787;28;20185;-75
2022/11/13 03:28:54;;;;;;;13.90;12.60;;;1.10;99.90;;;;;;5052565;28;20173;-75
2022/11/13 03:31:20;;;;;;;15.63;14.10;;;1.20;99.90;;;;;;5062657;28;20203;-75
2022/11/13 03:33:46;;;;;;;22.67;16.07;;;1.20;99.90;;;;;;5074223;28;20672;-74
2022/11/13 03:36:12;;;;;;;15.43;13.87;;;1.30;99.90;;;;;;5074102;28;20192;-74
2022/11/13 03:38:37;;;;;;;16.93;15.27;;;1.30;99.90;;;;;;5072477;28;20218;-73
2022/11/13 03:41:03;;;;;;;22.83;15.07;;;1.40;99.90;;;;;;5073412;28;20697;-73
2022/11/13 03:43:30;;;;;;;31.73;13.50;;;1.40;99.90;;;;;;5072341;28;20186;-75
2022/11/13 03:45:55;;;;;;;25.67;13.93;;;1.50;99.90;;;;;;5072358;28;20192;-74
2022/11/13 03:48:21;;;;;;;41.80;14.80;;;1.50;99.90;;;;;;5071977;28;20177;-73
2022/11/13 03:50:51;;;;;;;50.53;14.60;;;1.60;99.90;;;;;;5054818;28;20207;-74
2022/11/13 03:53:17;;;;;;;53.90;14.23;;;1.60;99.90;;;;;;5052150;28;20529;-74
2022/11/13 03:55:42;;;;;;;48.30;15.07;;;1.60;99.90;;;;;;5053280;28;20212;-74
2022/11/13 03:58:09;;;;;;;43.97;14.40;;;1.70;99.90;;;;;;5052743;28;20212;-74
2022/11/13 04:00:35;;;;;;;105.40;16.03;;;1.70;99.90;;;;;;5056370;28;20185;-72
2022/11/13 04:03:01;;;;;;;92.67;15.57;;;1.80;99.90;;;;;;5079949;28;20162;-73
2022/11/13 04:05:27;;;;;;;103.17;19.03;;;1.80;99.90;;;;;;5095846;28;20190;-73
2022/11/13 04:07:53;;;;;;;56.43;17.07;;;1.70;99.90;;;;;;5073011;28;20222;-74
2022/11/13 04:10:19;;;;;;;66.57;15.33;;;1.80;99.90;;;;;;5073396;28;20197;-74
2022/11/13 04:12:44;;;;;;;49.70;17.27;;;1.80;99.90;;;;;;5073197;28;20646;-72
2022/11/13 04:15:10;;;;;;;65.47;18.43;;;1.80;99.90;;;;;;5071930;28;20180;-73
2022/11/13 04:17:36;;;;;;;66.43;17.10;;;1.80;99.90;;;;;;5072305;28;20220;-73
2022/11/13 04:20:02;;;;;;;52.30;14.93;;;1.80;99.90;;;;;;5067857;28;20283;-73
2022/11/13 04:22:28;;;;;;;72.50;16.13;;;1.80;99.90;;;;;;5051641;28;20184;-74
2022/11/13 04:24:54;;;;;;;70.80;16.40;;;1.80;99.90;;;;;;5052156;28;20301;-73
2022/11/13 04:27:20;;;;;;;44.17;14.23;;;1.80;99.90;;;;;;5071501;28;20555;-74
2022/11/13 04:29:45;;;;;;;77.17;15.00;;;1.80;99.90;;;;;;5071559;28;20542;-73
2022/11/13 04:32:11;;;;;;;73.37;12.23;;;1.80;99.90;;;;;;5072556;28;20231;-73
2022/11/13 04:34:37;;;;;;;45.80;13.90;;;1.80;99.90;;;;;;5070636;28;20224;-74
2022/11/13 04:37:03;;;;;;;57.23;12.10;;;1.80;99.90;;;;;;5070957;28;20221;-73
2022/11/13 04:39:28;;;;;;;44.70;12.00;;;1.80;99.90;;;;;;5071173;28;20226;-74
2022/11/13 04:44:38;;;;;;;82.80;12.70;;;1.80;99.90;;;;;;5072368;28;20186;-73
2022/11/13 04:47:05;;;;;;;56.73;11.47;;;1.80;99.90;;;;;;5070849;28;20387;-74
2022/11/13 04:49:30;;;;;;;53.93;14.33;;;1.80;99.90;;;;;;5070496;28;20190;-74
2022/11/13 04:51:56;;;;;;;61.23;15.47;;;1.90;99.90;;;;;;5070709;28;20187;-74
2022/11/13 04:54:22;;;;;;;81.50;16.67;;;1.90;99.90;;;;;;5071066;28;20194;-73
2022/11/13 04:56:48;;;;;;;90.73;16.93;;;1.90;99.90;;;;;;5071825;28;20210;-74
2022/11/13 04:59:14;;;;;;;75.27;15.13;;;1.90;99.90;;;;;;5071885;28;20186;-74
2022/11/13 05:01:39;;;;;;;42.87;15.17;;;1.90;99.90;;;;;;5070732;28;20197;-73
2022/11/13 05:04:05;;;;;;;54.80;13.27;;;1.90;99.90;;;;;;5056239;28;20659;-74
2022/11/13 05:06:31;;;;;;;77.43;15.13;;;1.90;99.90;;;;;;5050760;28;20178;-74
2022/11/13 05:08:57;;;;;;;40.73;14.63;;;1.80;99.90;;;;;;5051187;28;20177;-74
2022/11/13 05:11:22;;;;;;;55.93;13.27;;;1.80;99.90;;;;;;5050512;28;20291;-74
2022/11/13 05:13:48;;;;;;;46.37;12.67;;;1.80;99.90;;;;;;5051780;28;20643;-74
2022/11/13 05:16:14;;;;;;;34.30;12.13;;;1.80;99.90;;;;;;5050465;28;20223;-74
2022/11/13 05:18:40;;;;;;;38.80;11.70;;;1.80;99.90;;;;;;5050202;28;20223;-74
2022/11/13 05:21:08;;;;;;;38.40;12.27;;;1.80;99.90;;;;;;5070439;28;20330;-73
2022/11/13 05:23:34;;;;;;;48.00;12.03;;;1.80;99.90;;;;;;5070105;28;20276;-73
2022/11/13 05:26:08;;;;;;;66.60;11.80;;;1.80;99.90;;;;;;5071588;28;20178;-73
2022/11/13 05:28:34;;;;;;;31.37;11.57;;;1.80;99.90;;;;;;5071673;28;20281;-73
2022/11/13 05:31:12;;;;;;;119.87;13.33;;;1.80;99.90;;;;;;5054744;28;20199;-74
2022/11/13 05:33:38;;;;;;;108.17;17.30;;;1.80;99.90;;;;;;5051597;28;20174;-74
2022/11/13 05:36:07;;;;;;;63.17;14.53;;;1.70;99.90;;;;;;5051323;28;20175;-76
2022/11/13 05:38:33;;;;;;;38.70;10.83;;;1.70;99.90;;;;;;5050355;28;20263;-74
2022/11/13 05:41:04;;;;;;;39.87;10.67;;;1.80;99.90;;;;;;5050485;28;20588;-74
2022/11/13 05:43:31;;;;;;;44.07;12.20;;;1.80;99.90;;;;;;5051169;28;20186;-73
2022/11/13 05:46:05;;;;;;;24.43;15.80;;;1.80;99.90;;;;;;5050183;28;20186;-74
2022/11/13 05:48:31;;;;;;;35.70;13.87;;;1.80;99.90;;;;;;5050314;28;20187;-73
2022/11/13 05:51:24;;;;;;;41.37;14.67;;;1.80;99.90;;;;;;5067793;28;20266;-74
2022/11/13 05:53:51;;;;;;;35.97;13.10;;;1.80;99.90;;;;;;5068923;28;20188;-75
2022/11/13 05:56:31;;;;;;;44.13;15.53;;;1.80;99.90;;;;;;5071072;28;20177;-74
2022/11/13 05:58:58;;;;;;;54.73;16.43;;;1.70;99.90;;;;;;5067569;28;20192;-73
2022/11/13 06:01:30;;;;;;;60.13;15.90;;;1.70;99.90;;;;;;5049498;28;20205;-74
2022/11/13 06:03:58;;;;;;;99.17;16.20;;;1.70;99.90;;;;;;5049743;28;20655;-74
2022/11/13 06:06:25;;;;;;;56.63;12.80;;;1.70;99.90;;;;;;5049673;28;20639;-74
2022/11/13 06:08:52;;;;;;;38.47;14.80;;;1.70;99.90;;;;;;5050542;28;20674;-74
2022/11/13 06:11:20;;;;;;;56.47;12.50;;;1.80;99.90;;;;;;5065402;28;20264;-74
2022/11/13 06:13:47;;;;;;;46.70;12.83;;;1.80;99.90;;;;;;5049624;28;20309;-74
2022/11/13 06:16:18;;;;;;;81.47;12.50;;;1.80;99.90;;;;;;5050837;28;20227;-74
2022/11/13 06:18:45;;;;;;;74.40;13.77;;;1.80;99.90;;;;;;5049153;28;20210;-74
2022/11/13 06:21:18;;;;;;;63.40;17.10;;;1.80;99.90;;;;;;5069448;28;20190;-74
2022/11/13 06:23:44;;;;;;;77.43;14.67;;;1.80;99.90;;;;;;5069341;28;20177;-73
2022/11/13 06:26:15;;;;;;;47.20;13.63;;;1.80;99.90;;;;;;5070611;28;20568;-74
2022/11/13 06:28:42;;;;;;;50.00;14.37;;;1.90;99.90;;;;;;5069096;28;20208;-74
2022/11/13 06:31:10;;;;;;;66.43;14.30;;;1.90;99.90;;;;;;5050194;28;20205;-74
2022/11/13 06:33:38;;;;;;;34.13;13.27;;;2.00;99.90;;;;;;5049304;28;20178;-74
2022/11/13 06:36:05;;;;;;;24.17;11.40;;;2.00;99.90;;;;;;5049292;28;20255;-74
2022/11/13 06:38:32;;;;;;;30.03;10.80;;;2.00;99.90;;;;;;5048604;28;20270;-73
2022/11/13 06:40:59;;;;;;;20.40;11.00;;;2.00;99.90;;;;;;5065449;28;20220;-73
2022/11/13 06:43:25;;;;;;;33.03;13.63;;;2.00;99.90;;;;;;5070701;28;20226;-73
2022/11/13 06:45:51;;;;;;;34.30;10.87;;;1.90;99.90;;;;;;5076004;28;20252;-74
2022/11/13 06:48:17;;;;;;;12.60;10.43;;;1.90;99.90;;;;;;5074066;28;20661;-74
2022/11/13 06:50:43;;;;;;;32.10;10.97;;;1.90;99.90;;;;;;5058466;28;20295;-74
2022/11/13 06:53:09;;;;;;;43.17;10.40;;;1.90;99.90;;;;;;5054196;28;20193;-73
2022/11/13 06:55:35;;;;;;;26.67;10.70;;;2.00;99.90;;;;;;5052714;28;20178;-74
2022/11/13 06:58:00;;;;;;;78.10;12.00;;;2.00;99.90;;;;;;5054587;28;20682;-73
2022/11/13 07:00:26;;;;;;;40.03;13.97;;;2.00;99.90;;;;;;5064362;28;20224;-74
2022/11/13 07:02:52;;;;;;;28.70;14.03;;;2.10;99.90;;;;;;5072018;28;20226;-75
2022/11/13 07:05:18;;;;;;;66.43;48.23;;;2.10;99.90;;;;;;5073899;28;20236;-74
2022/11/13 07:07:43;;;;;;;25.17;13.13;;;2.20;99.90;;;;;;5072530;28;20243;-75
2022/11/13 07:10:09;;;;;;;32.03;14.13;;;2.20;99.90;;;;;;5064130;28;20194;-75
2022/11/13 07:12:35;;;;;;;54.83;16.13;;;2.30;99.90;;;;;;5077178;28;20177;-73
2022/11/13 07:15:01;;;;;;;94.77;15.53;;;2.30;99.90;;;;;;5078151;28;20166;-73
2022/11/13 07:17:29;;;;;;;109.07;16.40;;;2.30;99.90;;;;;;5056792;28;20235;-75
2022/11/13 07:19:56;;;;;;;78.63;16.27;;;2.30;99.90;;;;;;5059045;28;20226;-76
2022/11/13 07:22:21;;;;;;;48.37;19.57;;;2.30;99.90;;;;;;5073691;28;20220;-73
2022/11/13 07:24:47;;;;;;;44.77;13.73;;;2.30;99.90;;;;;;5073316;28;20564;-72
2022/11/13 07:27:13;;;;;;;17.40;11.67;;;2.30;99.90;;;;;;5072132;28;20185;-75
2022/11/13 07:29:39;;;;;;;48.93;15.60;;;2.40;99.90;;;;;;5071859;28;20208;-75
2022/11/13 07:32:04;;;;;;;66.40;16.67;;;2.50;99.90;;;;;;5063350;28;20665;-73
2022/11/13 07:34:30;;;;;;;54.40;18.70;;;2.40;99.90;;;;;;5068981;28;20214;-75
2022/11/13 07:36:56;;;;;;;31.53;19.70;;;2.40;99.90;;;;;;5069290;28;20274;-74
2022/11/13 07:39:22;;;;;;;59.17;24.73;;;2.50;99.90;;;;;;5053024;28;20181;-74
2022/11/13 07:41:49;;;;;;;73.63;14.23;;;2.60;99.90;;;;;;5052058;28;20242;-74
2022/11/13 07:44:15;;;;;;;41.87;20.50;;;2.60;99.90;;;;;;5052168;28;20189;-70
2022/11/13 07:46:40;;;;;;;52.43;19.10;;;2.60;99.90;;;;;;5063496;28;20188;-70
2022/11/13 07:49:06;;;;;;;66.43;12.50;;;2.70;99.90;;;;;;5054827;28;20216;-70
2022/11/13 07:51:32;;;;;;;32.23;10.50;;;2.70;99.90;;;;;;5053221;28;20197;-70
2022/11/13 07:53:57;;;;;;;72.63;14.40;;;2.60;99.90;;;;;;5051935;28;20186;-70
2022/11/13 07:56:24;;;;;;;62.87;11.30;;;2.80;99.90;;;;;;5063640;28;20186;-70
2022/11/13 07:58:50;;;;;;;34.40;11.60;;;2.90;99.90;;;;;;5071446;28;20204;-70
2022/11/13 08:01:16;;;;;;;65.20;11.00;;;2.90;99.90;;;;;;5070367;28;20747;-70
2022/11/13 08:03:41;;;;;;;23.83;9.43;;;2.90;99.90;;;;;;5073024;28;20176;-70
2022/11/13 08:06:07;;;;;;;52.50;11.17;;;3.00;99.90;;;;;;5064984;28;20190;-70
2022/11/13 08:08:33;;;;;;;68.93;11.77;;;3.00;99.90;;;;;;5052608;28;20221;-70
2022/11/13 08:11:07;;;;;;;39.47;11.67;;;2.90;99.90;;;;;;5052621;28;20225;-71
2022/11/13 08:13:34;;;;;;;41.93;11.40;;;2.90;99.90;;;;;;5053002;28;20197;-70
2022/11/13 08:16:01;;;;;;;36.13;11.30;;;2.90;99.90;;;;;;5052803;28;20642;-71
2022/11/13 08:18:28;;;;;;;33.17;11.33;;;3.00;99.90;;;;;;5052382;28;20263;-71
2022/11/13 08:20:54;;;;;;;59.60;12.07;;;3.10;99.90;;;;;;5052916;28;20198;-71
2022/11/13 08:23:21;;;;;;;82.83;11.40;;;3.10;99.90;;;;;;5054575;28;20212;-73
2022/11/13 08:25:47;;;;;;;56.07;12.17;;;3.00;99.90;;;;;;5066684;28;20171;-71
2022/11/13 08:28:13;;;;;;;48.43;12.67;;;3.00;99.90;;;;;;5054714;28;20277;-72
2022/11/13 08:30:43;;;;;;;48.53;11.37;;;3.10;99.90;;;;;;5056281;28;20251;-72
2022/11/13 08:33:09;;;;;;;33.63;11.83;;;3.20;99.90;;;;;;5055642;28;20210;-72
2022/11/13 08:35:34;;;;;;;30.13;11.13;;;3.20;99.90;;;;;;5071808;28;20178;-72
2022/11/13 08:38:08;;;;;;;19.97;11.40;;;3.30;99.90;;;;;;5071425;28;20278;-72
2022/11/13 08:40:34;;;;;;;60.10;10.73;;;3.40;99.90;;;;;;5070348;28;20215;-72
2022/11/13 08:43:02;;;;;;;25.30;10.17;;;3.60;99.90;;;;;;5072056;28;20270;-72
2022/11/13 08:45:29;;;;;;;35.67;12.27;;;3.70;99.90;;;;;;5069422;28;20177;-72
2022/11/13 08:48:00;;;;;;;32.43;11.10;;;3.80;99.90;;;;;;5052335;28;20652;-73
2022/11/13 08:50:27;;;;;;;19.40;12.23;;;3.80;99.90;;;;;;5052505;28;20205;-72
2022/11/13 08:52:57;;;;;;;59.23;12.67;;;3.90;99.90;;;;;;5050816;28;20185;-74
2022/11/13 08:55:25;;;;;;;52.17;12.83;;;4.10;99.90;;;;;;5052376;28;20189;-73
2022/11/13 08:57:51;;;;;;;18.03;16.20;;;4.10;99.90;;;;;;5051902;28;20647;-72
2022/11/13 09:00:17;;;;;;;52.50;18.43;;;4.10;99.90;;;;;;5071454;28;20623;-72
2022/11/13 09:02:43;;;;;;;51.37;19.57;;;4.20;99.90;;;;;;5072846;28;20200;-72
2022/11/13 09:05:10;;;;;;;56.13;13.67;;;4.30;99.90;;;;;;5070929;28;20184;-72
2022/11/13 09:07:35;;;;;;;48.57;11.50;;;4.40;99.90;;;;;;5069712;28;20192;-72
2022/11/13 09:10:02;;;;;;;102.47;14.20;;;4.40;99.90;;;;;;5070648;28;20197;-71
2022/11/13 09:12:27;;;;;;;40.60;17.40;;;4.40;99.90;;;;;;5070946;28;20182;-71
2022/11/13 09:14:53;;;;;;;110.90;23.63;;;4.30;99.90;;;;;;5069917;28;20549;-72
2022/11/13 09:17:19;;;;;;;97.00;23.40;;;4.20;99.90;;;;;;5069334;28;20200;-71
2022/11/13 09:19:45;;;;;;;46.03;23.97;;;4.20;99.90;;;;;;5071779;28;20287;-71
2022/11/13 09:22:11;;;;;;;46.43;21.00;;;4.30;99.90;;;;;;5071788;28;20166;-71
2022/11/13 09:24:37;;;;;;;25.63;14.93;;;4.40;99.90;;;;;;5070786;28;20223;-72
2022/11/13 09:27:03;;;;;;;40.40;21.43;;;4.70;99.90;;;;;;5056486;28;20332;-71
2022/11/13 09:29:29;;;;;;;41.63;18.37;;;4.70;99.90;;;;;;5051616;28;20191;-71
2022/11/13 09:31:55;;;;;;;24.07;13.77;;;4.80;99.90;;;;;;5050600;28;20190;-72
2022/11/13 09:34:21;;;;;;;32.33;19.87;;;4.90;99.90;;;;;;5050552;28;20211;-72
2022/11/13 09:36:47;;;;;;;35.47;22.57;;;5.00;99.90;;;;;;5062299;28;20181;-71
2022/11/13 09:39:13;;;;;;;23.37;20.67;;;5.00;99.90;;;;;;5071665;28;20173;-71
2022/11/13 09:41:47;;;;;;;24.10;19.00;;;5.10;99.90;;;;;;5071531;28;20244;-71
2022/11/13 09:44:40;;;;;;;22.10;15.67;;;5.30;99.90;;;;;;5071684;28;20275;-70
2022/11/13 09:47:19;;;;;;;32.47;13.67;;;5.30;99.90;;;;;;5057248;28;20182;-71
2022/11/13 09:49:57;;;;;;;20.87;12.40;;;5.50;99.90;;;;;;5050347;28;20198;-71
2022/11/13 09:52:38;;;;;;;13.67;12.30;;;5.70;99.90;;;;;;5051473;28;20238;-71
2022/11/13 09:55:05;;;;;;;18.57;13.83;;;5.90;99.90;;;;;;5051316;28;20201;-71
2022/11/13 09:57:47;;;;;;;63.17;14.67;;;6.00;99.90;;;;;;5066559;28;20292;-72
2022/11/13 10:00:19;;;;;;;14.23;11.77;;;6.10;99.90;;;;;;5071388;28;20744;-71
2022/11/13 10:03:06;;;;;;;14.50;12.90;;;6.20;99.90;;;;;;5071497;28;20264;-71
2022/11/13 10:05:39;;;;;;;15.90;12.83;;;6.20;99.90;;;;;;5071411;28;20176;-71
2022/11/13 10:08:46;;;;;;;15.03;13.43;;;6.20;99.90;;;;;;5052204;28;20193;-71
2022/11/13 10:11:36;;;;;;;14.57;12.80;;;6.30;99.90;;;;;;5050673;28;20205;-72
2022/11/13 10:14:19;;;;;;;18.53;16.87;;;6.40;99.90;;;;;;5042337;28;20593;-71
2022/11/13 10:16:56;;;;;;;19.80;18.07;;;6.40;99.90;;;;;;5060326;28;20185;-72
2022/11/13 10:19:48;;;;;;;27.93;23.30;;;6.50;99.90;;;;;;5075112;28;20213;-72
2022/11/13 10:22:33;;;;;;;20.53;18.70;;;6.50;99.90;;;;;;5083020;28;20772;-71
2022/11/13 10:25:09;;;;;;;21.10;18.80;;;6.70;99.90;;;;;;5071062;28;20212;-73
2022/11/13 10:27:35;;;;;;;22.63;20.53;;;6.80;99.90;;;;;;5054987;28;20743;-72
2022/11/13 10:30:02;;;;;;;21.20;19.17;;;6.90;99.90;;;;;;5049785;28;20202;-71
2022/11/13 10:32:31;;;;;;;21.37;19.47;;;6.90;99.90;;;;;;5050857;28;20186;-71
2022/11/13 10:35:08;;;;;;;36.53;33.20;;;7.10;99.90;;;;;;5050798;28;20182;-72
2022/11/13 10:38:01;;;;;;;20.70;19.00;;;7.00;99.90;;;;;;5065240;28;20232;-71
2022/11/13 10:40:32;;;;;;;22.97;21.07;;;7.00;99.90;;;;;;5070897;28;20557;-71
2022/11/13 10:43:12;;;;;;;20.77;18.97;;;7.20;99.90;;;;;;5071323;28;20182;-72
2022/11/13 10:45:38;;;;;;;24.40;21.80;;;7.30;99.90;;;;;;5071166;28;20522;-72
2022/11/13 10:48:05;;;;;;;16.40;14.70;;;7.40;99.90;;;;;;5069025;28;20650;-71
2022/11/13 10:50:32;;;;;;;17.23;14.70;;;7.40;99.90;;;;;;5069745;28;20205;-71
2022/11/13 10:52:58;;;;;;;22.33;20.03;;;7.60;99.90;;;;;;5071000;28;20255;-72
2022/11/13 10:55:33;;;;;;;17.90;16.10;;;7.80;99.90;;;;;;5069681;28;20182;-71
2022/11/13 10:58:02;;;;;;;17.13;15.43;;;7.80;99.90;;;;;;5050886;28;20571;-71
2022/11/13 11:00:35;;;;;;;15.47;13.87;;;8.40;99.90;;;;;;5050684;28;20194;-71
2022/11/13 11:03:01;;;;;;;24.63;22.77;;;8.90;99.90;;;;;;5050748;28;20186;-71
2022/11/13 11:05:27;;;;;;;27.10;25.00;;;9.50;99.90;;;;;;5050524;28;20175;-72
2022/11/13 11:07:56;;;;;;;24.53;22.63;;;10.60;99.90;;;;;;5068067;28;20236;-72
2022/11/13 11:10:32;;;;;;;16.50;14.90;;;11.50;99.90;;;;;;5070211;28;20694;-72
2022/11/13 11:13:10;;;;;;;20.47;18.33;;;12.50;99.90;;;;;;5070530;28;20197;-72
2022/11/13 11:15:58;;;;;;;17.40;16.00;;;13.70;99.90;;;;;;5069427;28;20189;-71
2022/11/13 11:18:43;;;;;;;18.73;17.23;;;14.30;99.90;;;;;;5050177;28;20214;-73
2022/11/13 11:21:15;;;;;;;15.13;13.73;;;14.50;99.90;;;;;;5050314;28;20296;-72
2022/11/13 11:23:52;;;;;;;14.80;13.47;;;14.60;99.90;;;;;;5049435;28;20213;-72
2022/11/13 11:26:33;;;;;;;13.00;11.90;;;14.30;99.90;;;;;;5055127;28;20552;-71
2022/11/13 11:29:25;;;;;;;15.23;13.83;;;14.90;99.90;;;;;;5070356;28;20645;-72
2022/11/13 11:32:05;;;;;;;15.47;14.07;;;14.20;99.90;;;;;;5070563;28;20196;-71
2022/11/13 11:34:59;;;;;;;15.53;14.13;;;14.20;99.90;;;;;;5070450;28;20181;-71
2022/11/13 11:37:38;;;;;;;14.27;12.97;;;14.20;99.90;;;;;;5057992;28;20241;-71
2022/11/13 11:40:11;;;;;;;16.33;14.73;;;15.00;99.90;;;;;;5072212;28;20237;-73
2022/11/13 11:43:00;;;;;;;17.27;15.67;;;15.40;99.90;;;;;;5072710;28;20192;-73
2022/11/13 11:45:34;;;;;;;14.93;13.53;;;15.90;99.90;;;;;;5074067;28;20188;-73
2022/11/13 11:48:03;;;;;;;14.63;13.17;;;16.00;99.90;;;;;;5055209;28;20182;-73
2022/11/13 11:50:28;;;;;;;19.17;17.27;;;16.10;99.90;;;;;;5053987;28;20240;-74
2022/11/13 11:53:12;;;;;;;15.50;14.00;;;16.70;99.90;;;;;;5056779;28;20190;-73
2022/11/13 11:56:13;;;;;;;14.47;13.17;;;16.60;99.90;;;;;;5054768;28;20634;-74
2022/11/13 11:59:07;;;;;;;15.10;13.80;;;16.40;99.90;;;;;;5051964;28;20233;-74
2022/11/13 12:01:52;;;;;;;19.07;17.47;;;16.30;99.90;;;;;;5049040;28;20214;-74
2022/11/13 12:04:42;;;;;;;18.87;17.37;;;16.40;99.90;;;;;;5052375;28;20545;-74
2022/11/13 12:07:20;;;;;;;17.30;15.83;;;15.80;99.90;;;;;;5062922;28;20539;-74
2022/11/13 12:09:55;;;;;;;16.50;14.90;;;15.60;99.90;;;;;;5073246;28;20239;-72
2022/11/13 12:12:53;;;;;;;16.80;15.53;;;16.40;99.90;;;;;;5073089;28;20237;-73
2022/11/13 12:15:47;;;;;;;22.53;20.83;;;16.80;99.90;;;;;;5072863;28;20863;-72
2022/11/13 12:18:18;;;;;;;22.97;21.23;;;17.40;99.90;;;;;;5053349;28;20241;-72
2022/11/13 12:21:08;;;;;;;23.10;21.30;;;17.40;99.90;;;;;;5052101;28;20198;-69
2022/11/13 12:24:06;;;;;;;23.60;21.90;;;17.30;99.90;;;;;;5052968;28;20769;-70
2022/11/13 12:26:42;;;;;;;33.03;30.83;;;17.70;99.90;;;;;;5057958;28;20192;-69
2022/11/13 12:29:39;;;;;;;29.77;27.67;;;18.80;99.90;;;;;;5073101;28;20793;-69
2022/11/13 12:32:29;;;;;;;29.33;27.33;;;18.90;99.90;;;;;;5073052;28;20182;-72
2022/11/13 12:35:28;;;;;;;27.63;25.73;;;18.60;99.90;;;;;;5072677;28;20666;-72
2022/11/13 12:38:17;;;;;;;38.17;35.07;;;18.20;99.90;;;;;;5064985;28;20213;-71
2022/11/13 12:40:54;;;;;;;25.93;24.07;;;18.40;99.90;;;;;;5064518;28;20220;-71
2022/11/13 12:43:48;;;;;;;27.20;25.30;;;18.80;99.90;;;;;;5069146;28;20181;-71
2022/11/13 12:46:15;;;;;;;24.47;22.77;;;18.40;99.90;;;;;;5071572;28;20525;-71
2022/11/13 12:48:46;;;;;;;21.27;19.77;;;18.50;99.90;;;;;;5071688;28;20269;-71
2022/11/13 12:51:15;;;;;;;26.13;24.23;;;17.90;99.90;;;;;;5072706;28;20581;-71
2022/11/13 12:53:46;;;;;;;29.93;27.83;;;17.80;99.90;;;;;;5057342;28;20569;-70